createdAt,value
2019-03-26T00:01:51.070Z,98157.60
2019-03-26T00:04:23.673Z,98156.45
2019-03-26T00:06:56.246Z,98153.14
2019-03-26T00:09:28.802Z,98154.52
2019-03-26T00:12:01.669Z,98153.70
2019-03-26T00:14:34.204Z,98150.06
2019-03-26T00:17:06.745Z,98147.95
2019-03-26T00:19:39.454Z,98143.16
2019-03-26T00:22:11.987Z,98151.12
2019-03-26T00:24:44.409Z,98139.91
2019-03-26T00:27:16.910Z,98138.47
2019-03-26T00:29:49.537Z,98137.97
2019-03-26T00:32:23.620Z,98136.59
2019-03-26T00:34:56.394Z,98131.08
2019-03-26T00:37:28.831Z,98126.05
2019-03-26T00:40:01.489Z,98118.66
2019-03-26T00:42:33.952Z,98117.52
2019-03-26T00:45:07.417Z,98118.34
2019-03-26T00:47:40.077Z,98115.75
2019-03-26T00:50:12.643Z,98112.99
2019-03-26T00:52:45.120Z,98113.75
2019-03-26T00:55:22.752Z,98110.00
2019-03-26T00:57:51.827Z,98105.59
2019-03-26T01:00:35.932Z,98106.42
2019-03-26T01:03:08.763Z,98103.72
2019-03-26T01:05:41.599Z,98096.03
2019-03-26T01:08:14.229Z,98093.19
2019-03-26T01:10:46.677Z,98095.06
2019-03-26T01:13:19.295Z,98099.34
2019-03-26T01:15:51.938Z,98095.06
2019-03-26T01:18:24.552Z,98103.72
2019-03-26T01:20:57.090Z,98101.88
2019-03-26T01:23:29.610Z,98096.53
2019-03-26T01:26:02.056Z,98094.33
2019-03-26T01:28:34.497Z,98098.47
2019-03-26T01:31:07.049Z,98096.27
2019-03-26T01:33:39.408Z,98099.34
2019-03-26T01:36:11.860Z,98098.14
2019-03-26T01:38:44.428Z,98096.83
2019-03-26T01:41:16.796Z,98095.21
2019-03-26T01:43:49.316Z,98100.49
2019-03-26T01:46:21.987Z,98096.03
2019-03-26T01:48:54.419Z,98102.34
2019-03-26T01:51:26.957Z,98104.55
2019-03-26T01:53:59.576Z,98101.29
2019-03-26T01:56:32.005Z,98096.16
2019-03-26T01:59:04.565Z,98094.66
2019-03-26T02:01:37.118Z,98095.86
2019-03-26T02:04:09.713Z,98098.30
2019-03-26T02:06:42.242Z,98085.94
2019-03-26T02:09:14.815Z,98087.27
2019-03-26T02:11:47.555Z,98087.00
2019-03-26T02:14:19.996Z,98087.64
2019-03-26T02:16:52.505Z,98084.00
2019-03-26T02:19:25.060Z,98083.73
2019-03-26T02:21:57.494Z,98087.59
2019-03-26T02:24:30.028Z,98080.19
2019-03-26T02:27:02.667Z,98076.84
2019-03-26T02:29:35.164Z,98079.93
2019-03-26T02:32:07.617Z,98073.03
2019-03-26T02:34:40.105Z,98068.28
2019-03-26T02:37:12.678Z,98066.08
2019-03-26T02:39:45.260Z,98073.63
2019-03-26T02:42:17.823Z,98067.78
2019-03-26T02:44:50.409Z,98064.14
2019-03-26T02:47:23.296Z,98056.16
2019-03-26T02:49:55.881Z,98054.87
2019-03-26T02:52:28.634Z,98054.78
2019-03-26T02:55:01.133Z,98056.92
2019-03-26T02:57:33.886Z,98055.92
2019-03-26T03:00:07.741Z,98051.72
2019-03-26T03:02:40.385Z,98055.98
2019-03-26T03:05:13.006Z,98050.41
2019-03-26T03:07:45.555Z,98048.47
2019-03-26T03:10:18.159Z,98045.95
2019-03-26T03:12:50.708Z,98051.23
2019-03-26T03:15:23.361Z,98043.75
2019-03-26T03:17:55.964Z,98053.48
2019-03-26T03:20:28.532Z,98060.62
2019-03-26T03:23:00.971Z,98046.04
2019-03-26T03:25:33.507Z,98052.61
2019-03-26T03:28:06.281Z,98052.84
2019-03-26T03:30:38.823Z,98056.75
2019-03-26T03:33:11.436Z,98056.75
2019-03-26T03:35:51.939Z,98049.70
2019-03-26T03:38:18.322Z,98044.83
2019-03-26T03:40:50.791Z,98045.62
2019-03-26T03:43:23.257Z,98047.82
2019-03-26T03:45:56.117Z,98053.34
2019-03-26T03:48:28.550Z,98050.34
2019-03-26T03:51:01.202Z,98047.09
2019-03-26T03:53:33.718Z,98047.27
2019-03-26T03:56:06.101Z,98044.06
2019-03-26T03:58:38.671Z,98048.14
2019-03-26T04:01:11.034Z,98046.20
2019-03-26T04:03:43.485Z,98041.80
2019-03-26T04:06:16.373Z,98042.95
2019-03-26T04:08:49.341Z,98045.45
2019-03-26T04:11:21.926Z,98055.37
2019-03-26T04:13:54.707Z,98045.95
2019-03-26T04:16:27.362Z,98045.33
2019-03-26T04:19:00.027Z,98049.84
2019-03-26T04:21:32.466Z,98049.76
2019-03-26T04:24:05.016Z,98055.59
2019-03-26T04:26:37.573Z,98046.83
2019-03-26T04:29:10.249Z,98043.95
2019-03-26T04:31:42.744Z,98050.25
2019-03-26T04:34:15.356Z,98036.79
2019-03-26T04:36:47.908Z,98042.86
2019-03-26T04:39:20.493Z,98041.75
2019-03-26T04:41:53.041Z,98044.50
2019-03-26T04:44:25.846Z,98033.53
2019-03-26T04:46:58.521Z,98029.89
2019-03-26T04:49:31.084Z,98028.52
2019-03-26T04:52:04.043Z,98027.95
2019-03-26T04:54:36.654Z,98034.36
2019-03-26T04:57:09.080Z,98037.61
2019-03-26T04:59:41.643Z,98029.50
2019-03-26T05:02:14.174Z,98031.53
2019-03-26T05:04:46.540Z,98039.22
2019-03-26T05:07:19.029Z,98043.95
2019-03-26T05:09:51.505Z,98048.31
2019-03-26T05:12:24.145Z,98037.84
2019-03-26T05:14:56.621Z,98039.39
2019-03-26T05:17:29.251Z,98037.52
2019-03-26T05:20:01.182Z,98040.27
2019-03-26T05:22:33.926Z,98044.12
2019-03-26T05:25:07.354Z,98039.22
2019-03-26T05:27:45.398Z,98036.89
2019-03-26T05:30:14.865Z,98030.55
2019-03-26T05:32:47.469Z,98032.00
2019-03-26T05:35:20.125Z,98024.65
2019-03-26T05:37:52.688Z,98022.45
2019-03-26T05:40:25.131Z,98023.04
2019-03-26T05:42:57.692Z,98024.58
2019-03-26T05:45:30.361Z,98029.84
2019-03-26T05:48:02.984Z,98035.63
2019-03-26T05:50:35.646Z,98026.75
2019-03-26T05:53:08.208Z,98026.36
2019-03-26T05:55:40.793Z,98022.13
2019-03-26T05:58:13.238Z,98021.89
2019-03-26T06:00:45.855Z,98016.80
2019-03-26T06:03:18.392Z,98018.80
2019-03-26T06:05:51.051Z,98012.17
2019-03-26T06:08:23.552Z,98016.38
2019-03-26T06:10:56.089Z,98014.17
2019-03-26T06:13:28.560Z,98004.52
2019-03-26T06:16:01.091Z,98007.28
2019-03-26T06:18:33.652Z,98008.82
2019-03-26T06:21:06.095Z,97995.91
2019-03-26T06:23:38.925Z,97994.53
2019-03-26T06:26:11.452Z,97991.48
2019-03-26T06:28:43.931Z,97992.36
2019-03-26T06:31:16.477Z,97992.59
2019-03-26T06:33:49.007Z,97993.09
2019-03-26T06:36:21.486Z,97989.21
2019-03-26T06:38:54.078Z,97991.09
2019-03-26T06:41:26.683Z,97994.73
2019-03-26T06:43:59.317Z,97992.37
2019-03-26T06:46:31.912Z,97984.19
2019-03-26T06:49:04.469Z,97986.78
2019-03-26T06:51:36.981Z,97983.20
2019-03-26T06:54:09.544Z,97988.16
2019-03-26T06:56:41.996Z,97989.55
2019-03-26T06:59:14.462Z,97977.95
2019-03-26T07:01:47.033Z,97975.25
2019-03-26T07:04:19.554Z,97982.48
2019-03-26T07:06:51.957Z,97985.14
2019-03-26T07:09:24.573Z,97990.83
2019-03-26T07:11:57.111Z,97991.97
2019-03-26T07:14:29.535Z,97993.59
2019-03-26T07:17:02.047Z,97987.28
2019-03-26T07:19:34.531Z,97983.92
2019-03-26T07:22:07.005Z,97995.55
2019-03-26T07:24:39.603Z,97992.30
2019-03-26T07:27:12.062Z,97989.64
2019-03-26T07:29:44.628Z,97982.25
2019-03-26T07:32:17.190Z,97977.85
2019-03-26T07:34:49.745Z,97967.30
2019-03-26T07:37:22.202Z,97969.34
2019-03-26T07:39:54.826Z,97962.60
2019-03-26T07:42:27.287Z,97966.81
2019-03-26T07:44:59.818Z,97962.18
2019-03-26T07:47:32.371Z,97960.80
2019-03-26T07:50:06.351Z,97967.96
2019-03-26T07:52:38.953Z,97958.86
2019-03-26T07:55:11.699Z,97960.24
2019-03-26T07:57:44.274Z,97960.24
2019-03-26T08:00:20.073Z,97960.80
2019-03-26T08:02:52.648Z,97957.16
2019-03-26T08:05:30.025Z,97952.78
2019-03-26T08:07:59.312Z,97956.43
2019-03-26T08:10:32.040Z,97956.66
2019-03-26T08:13:04.562Z,97956.92
2019-03-26T08:15:37.327Z,97953.34
2019-03-26T08:18:09.959Z,97958.37
2019-03-26T08:20:42.344Z,97954.39
2019-03-26T08:23:14.944Z,97951.63
2019-03-26T08:25:47.853Z,97947.17
2019-03-26T08:28:20.377Z,97948.25
2019-03-26T08:30:52.877Z,97947.43
2019-03-26T08:33:25.401Z,97941.98
2019-03-26T08:35:57.933Z,97943.45
2019-03-26T08:38:33.374Z,97945.72
2019-03-26T08:41:04.716Z,97940.69
2019-03-26T08:43:37.182Z,97938.00
2019-03-26T08:46:09.727Z,97938.82
2019-03-26T08:48:42.411Z,97940.77
2019-03-26T08:51:14.873Z,97934.19
2019-03-26T08:53:47.482Z,97942.73
2019-03-26T08:56:20.257Z,97944.67
2019-03-26T08:58:52.936Z,97942.73
2019-03-26T09:01:25.467Z,97937.20
2019-03-26T09:03:58.074Z,97944.34
2019-03-26T09:06:30.676Z,97945.48
2019-03-26T09:09:04.918Z,97948.31
2019-03-26T09:11:37.387Z,97949.53
2019-03-26T09:14:09.869Z,97948.81
2019-03-26T09:16:42.370Z,97951.23
2019-03-26T09:19:14.858Z,97957.31
2019-03-26T09:21:47.386Z,97949.79
2019-03-26T09:24:19.883Z,97955.47
2019-03-26T09:26:52.427Z,97954.28
2019-03-26T09:29:25.021Z,97948.99
2019-03-26T09:31:57.542Z,97949.85
2019-03-26T09:34:30.156Z,97948.47
2019-03-26T09:37:02.670Z,97944.06
2019-03-26T09:39:38.206Z,97942.02
2019-03-26T09:42:09.335Z,97948.70
2019-03-26T09:44:41.981Z,97936.02
2019-03-26T09:47:16.295Z,97947.21
2019-03-26T09:49:48.747Z,97941.95
2019-03-26T09:52:21.268Z,97942.11
2019-03-26T09:54:53.810Z,97939.75
2019-03-26T09:57:26.270Z,97942.11
2019-03-26T09:59:58.739Z,97945.50
2019-03-26T10:02:31.151Z,97943.48
2019-03-26T10:05:04.548Z,97945.20
2019-03-26T10:07:37.441Z,97946.25
2019-03-26T10:10:09.985Z,97947.70
2019-03-26T10:12:42.772Z,97954.20
2019-03-26T10:15:15.388Z,97951.52
2019-03-26T10:17:47.930Z,97956.47
2019-03-26T10:20:20.392Z,97958.34
2019-03-26T10:22:53.020Z,97960.21
2019-03-26T10:25:25.421Z,97961.44
2019-03-26T10:27:58.195Z,97957.45
2019-03-26T10:30:38.097Z,97953.23
2019-03-26T10:33:10.687Z,97965.66
2019-03-26T10:35:43.556Z,97965.17
2019-03-26T10:38:16.243Z,97955.74
2019-03-26T10:40:48.890Z,97956.72
2019-03-26T10:43:21.464Z,97957.94
2019-03-26T10:45:54.048Z,97960.30
2019-03-26T10:48:26.434Z,97959.70
2019-03-26T10:50:59.254Z,97957.38
2019-03-26T10:53:31.786Z,97952.91
2019-03-26T10:56:04.255Z,97956.16
2019-03-26T10:58:36.753Z,97964.44
2019-03-26T11:01:09.308Z,97966.37
2019-03-26T11:03:42.044Z,97969.14
2019-03-26T11:06:14.582Z,97963.22
2019-03-26T11:08:50.249Z,97968.58
2019-03-26T11:11:23.140Z,97974.17
2019-03-26T11:13:58.662Z,97964.18
2019-03-26T11:16:29.950Z,97961.52
2019-03-26T11:19:02.457Z,97965.48
2019-03-26T11:21:35.352Z,97960.20
2019-03-26T11:24:19.529Z,97970.52
2019-03-26T11:26:47.633Z,97975.00
2019-03-26T11:29:20.319Z,97978.07
2019-03-26T11:31:52.972Z,97979.54
2019-03-26T11:34:25.618Z,97973.69
2019-03-26T11:36:58.149Z,97979.70
2019-03-26T11:39:32.961Z,97980.03
2019-03-26T11:42:04.925Z,97982.45
2019-03-26T11:44:37.509Z,97982.69
2019-03-26T11:47:10.149Z,97991.39
2019-03-26T11:49:42.693Z,97994.16
2019-03-26T11:52:15.132Z,97997.07
2019-03-26T11:54:47.613Z,97999.61
2019-03-26T11:57:20.209Z,98006.25
2019-03-26T11:59:52.728Z,98012.03
2019-03-26T12:02:25.325Z,98018.34
2019-03-26T12:04:57.884Z,98015.44
2019-03-26T12:07:30.500Z,98016.00
2019-03-26T12:10:03.754Z,98016.66
2019-03-26T12:12:36.493Z,98016.41
2019-03-26T12:15:09.325Z,98023.80
2019-03-26T12:17:41.851Z,98019.16
2019-03-26T12:20:14.434Z,98025.18
2019-03-26T12:22:47.052Z,98022.98
2019-03-26T12:25:19.568Z,98030.70
2019-03-26T12:27:52.111Z,98031.75
2019-03-26T12:30:32.875Z,98034.52
2019-03-26T12:33:06.428Z,98041.42
2019-03-26T12:35:39.778Z,98042.08
2019-03-26T12:38:16.969Z,98046.78
2019-03-26T12:40:49.603Z,98041.09
2019-03-26T12:43:24.069Z,98051.68
2019-03-26T12:45:56.628Z,98044.84
2019-03-26T12:48:47.377Z,98046.05
2019-03-26T12:51:20.303Z,98044.77
2019-03-26T12:53:52.900Z,98047.77
2019-03-26T12:56:25.481Z,98043.69
2019-03-26T12:58:58.628Z,98043.39
2019-03-26T13:01:33.204Z,98046.31
2019-03-26T13:04:12.628Z,98051.84
2019-03-26T13:06:40.343Z,98042.47
2019-03-26T13:09:13.136Z,98047.44
2019-03-26T13:11:45.613Z,98051.25
2019-03-26T13:14:18.047Z,98057.03
2019-03-26T13:16:50.571Z,98052.72
2019-03-26T13:19:23.128Z,98051.84
2019-03-26T13:21:58.611Z,98056.47
2019-03-26T13:24:31.774Z,98060.77
2019-03-26T13:27:04.550Z,98066.04
2019-03-26T13:29:37.375Z,98068.24
2019-03-26T13:32:12.887Z,98063.27
2019-03-26T13:34:44.216Z,98068.80
2019-03-26T13:37:16.801Z,98061.89
2019-03-26T13:39:51.049Z,98067.42
2019-03-26T13:42:23.958Z,98064.66
2019-03-26T13:44:59.442Z,98072.95
2019-03-26T13:47:31.879Z,98075.08
2019-03-26T13:50:06.471Z,98082.21
2019-03-26T13:52:39.096Z,98080.52
2019-03-26T13:55:11.765Z,98084.09
2019-03-26T13:57:44.224Z,98077.90
2019-03-26T14:00:20.046Z,98085.30
2019-03-26T14:02:52.636Z,98081.97
2019-03-26T14:05:26.839Z,98090.66
2019-03-26T14:07:59.341Z,98085.06
2019-03-26T14:10:40.827Z,98090.26
2019-03-26T14:13:06.193Z,98092.20
2019-03-26T14:15:38.777Z,98090.10
2019-03-26T14:18:17.238Z,98101.88
2019-03-26T14:20:49.983Z,98101.08
2019-03-26T14:23:22.609Z,98107.16
2019-03-26T14:25:55.216Z,98107.80
2019-03-26T14:28:27.789Z,98115.20
2019-03-26T14:31:00.339Z,98115.69
2019-03-26T14:33:40.603Z,98118.61
2019-03-26T14:36:18.040Z,98122.45
2019-03-26T14:38:50.700Z,98121.47
2019-03-26T14:41:34.129Z,98124.80
2019-03-26T14:44:06.632Z,98133.73
2019-03-26T14:46:40.851Z,98130.25
2019-03-26T14:49:13.320Z,98129.50
2019-03-26T14:51:46.040Z,98132.66
2019-03-26T14:54:18.811Z,98133.48
2019-03-26T14:56:51.333Z,98138.05
2019-03-26T14:59:24.040Z,98137.89
2019-03-26T15:01:56.792Z,98141.86
2019-03-26T15:04:29.316Z,98140.06
2019-03-26T15:07:02.231Z,98150.63
2019-03-26T15:09:34.822Z,98153.80
2019-03-26T15:12:07.382Z,98151.53
2019-03-26T15:14:39.993Z,98151.05
2019-03-26T15:17:12.566Z,98162.92
2019-03-26T15:19:45.023Z,98163.48
2019-03-26T15:22:17.445Z,98168.77
2019-03-26T15:24:49.974Z,98167.30
2019-03-26T15:27:22.683Z,98170.16
2019-03-26T15:29:55.284Z,98181.11
2019-03-26T15:32:27.907Z,98175.02
2019-03-26T15:35:00.770Z,98186.41
2019-03-26T15:37:33.236Z,98197.78
2019-03-26T15:40:08.178Z,98197.13
2019-03-26T15:42:41.738Z,98197.19
2019-03-26T15:45:15.215Z,98208.70
2019-03-26T15:47:47.709Z,98202.67
2019-03-26T15:50:43.463Z,98211.88
2019-03-26T15:53:15.125Z,98209.91
2019-03-26T15:55:48.001Z,98211.95
2019-03-26T15:58:20.663Z,98220.62
2019-03-26T16:00:53.386Z,98220.62
2019-03-26T16:03:26.041Z,98221.77
2019-03-26T16:05:58.754Z,98228.08
2019-03-26T16:08:31.682Z,98234.75
2019-03-26T16:11:04.238Z,98228.97
2019-03-26T16:13:39.435Z,98238.41
2019-03-26T16:16:12.482Z,98238.08
2019-03-26T16:18:47.449Z,98247.52
2019-03-26T16:21:24.627Z,98260.73
2019-03-26T16:23:58.130Z,98263.98
2019-03-26T16:26:34.982Z,98261.88
2019-03-26T16:29:11.015Z,98271.87
2019-03-26T16:31:44.058Z,98277.30
2019-03-26T16:34:17.088Z,98280.95
2019-03-26T16:36:59.313Z,98280.22
2019-03-26T16:39:29.237Z,98295.25
2019-03-26T16:42:04.618Z,98294.29
2019-03-26T16:44:37.504Z,98293.20
2019-03-26T16:47:10.259Z,98295.73
2019-03-26T16:49:42.958Z,98305.22
2019-03-26T16:52:15.630Z,98304.72
2019-03-26T16:54:48.316Z,98312.73
2019-03-26T16:57:21.268Z,98313.88
2019-03-26T16:59:57.472Z,98316.64
2019-03-26T17:02:30.353Z,98317.84
2019-03-26T17:05:05.216Z,98330.33
2019-03-26T17:07:37.904Z,98339.48
2019-03-26T17:10:10.491Z,98335.34
2019-03-26T17:12:43.119Z,98347.22
2019-03-26T17:15:15.600Z,98340.36
2019-03-26T17:17:48.314Z,98332.08
2019-03-26T17:20:23.830Z,98332.35
2019-03-26T17:22:55.958Z,98329.83
2019-03-26T17:25:28.757Z,98339.25
2019-03-26T17:28:01.357Z,98336.49
2019-03-26T17:30:33.908Z,98338.11
2019-03-26T17:33:06.539Z,98343.95
2019-03-26T17:35:39.035Z,98355.03
2019-03-26T17:38:11.558Z,98354.30
2019-03-26T17:40:44.078Z,98358.06
2019-03-26T17:43:16.605Z,98356.41
2019-03-26T17:45:49.676Z,98357.80
2019-03-26T17:48:22.309Z,98373.25
2019-03-26T17:50:54.920Z,98371.09
2019-03-26T17:53:27.447Z,98366.34
2019-03-26T17:56:00.089Z,98370.72
2019-03-26T17:58:32.848Z,98373.06
2019-03-26T18:01:05.410Z,98387.05
2019-03-26T18:03:37.857Z,98386.55
2019-03-26T18:06:10.336Z,98377.63
2019-03-26T18:08:42.860Z,98376.89
2019-03-26T18:11:15.209Z,98376.25
2019-03-26T18:13:47.810Z,98375.88
2019-03-26T18:16:20.377Z,98372.88
2019-03-26T18:18:54.951Z,98368.77
2019-03-26T18:21:27.255Z,98366.95
2019-03-26T18:23:59.783Z,98369.33
2019-03-26T18:26:32.299Z,98370.19
2019-03-26T18:29:04.808Z,98370.01
2019-03-26T18:31:37.349Z,98379.35
2019-03-26T18:34:09.865Z,98370.19
2019-03-26T18:36:42.668Z,98370.19
2019-03-26T18:39:15.339Z,98376.83
2019-03-26T18:41:47.883Z,98381.47
2019-03-26T18:44:20.330Z,98377.59
2019-03-26T18:46:52.898Z,98387.49
2019-03-26T18:49:25.437Z,98384.05
2019-03-26T18:51:57.973Z,98393.66
2019-03-26T18:54:30.433Z,98395.93
2019-03-26T18:57:02.932Z,98392.58
2019-03-26T18:59:35.234Z,98394.23
2019-03-26T19:02:07.708Z,98405.22
2019-03-26T19:04:40.228Z,98409.59
2019-03-26T19:07:12.818Z,98410.98
2019-03-26T19:09:45.236Z,98415.63
2019-03-26T19:12:17.881Z,98414.74
2019-03-26T19:14:50.407Z,98421.09
2019-03-26T19:17:22.904Z,98425.30
2019-03-26T19:19:58.257Z,98428.00
2019-03-26T19:22:29.640Z,98426.53
2019-03-26T19:25:02.104Z,98430.00
2019-03-26T19:27:34.681Z,98428.30
2019-03-26T19:30:07.391Z,98430.82
2019-03-26T19:32:39.939Z,98426.91
2019-03-26T19:35:12.518Z,98431.05
2019-03-26T19:37:45.101Z,98431.97
2019-03-26T19:40:17.722Z,98433.34
2019-03-26T19:42:50.203Z,98431.64
2019-03-26T19:45:22.718Z,98442.38
2019-03-26T19:47:55.198Z,98441.23
2019-03-26T19:50:27.568Z,98450.66
2019-03-26T19:53:00.143Z,98450.52
2019-03-26T19:55:32.719Z,98459.31
2019-03-26T19:58:05.280Z,98456.55
2019-03-26T20:00:37.763Z,98455.17
2019-03-26T20:03:10.433Z,98456.55
2019-03-26T20:05:42.865Z,98455.67
2019-03-26T20:08:15.504Z,98460.31
2019-03-26T20:10:48.172Z,98461.47
2019-03-26T20:13:24.713Z,98467.20
2019-03-26T20:15:54.971Z,98469.48
2019-03-26T20:18:27.603Z,98472.64
2019-03-26T20:21:00.052Z,98473.31
2019-03-26T20:23:32.695Z,98481.31
2019-03-26T20:26:05.198Z,98481.75
2019-03-26T20:28:37.605Z,98481.25
2019-03-26T20:31:10.079Z,98485.95
2019-03-26T20:33:42.877Z,98488.98
2019-03-26T20:36:15.550Z,98486.58
2019-03-26T20:38:51.303Z,98498.28
2019-03-26T20:41:37.425Z,98508.19
2019-03-26T20:44:09.998Z,98516.63
2019-03-26T20:46:42.538Z,98514.97
2019-03-26T20:49:14.970Z,98521.67
2019-03-26T20:51:47.468Z,98523.14
2019-03-26T20:54:20.111Z,98523.19
2019-03-26T20:56:52.771Z,98526.46
2019-03-26T20:59:25.196Z,98529.78
2019-03-26T21:01:58.003Z,98530.34
2019-03-26T21:04:30.575Z,98528.40
2019-03-26T21:07:03.256Z,98528.48
2019-03-26T21:09:36.136Z,98532.41
2019-03-26T21:12:08.697Z,98541.52
2019-03-26T21:14:41.269Z,98536.32
2019-03-26T21:17:13.874Z,98539.41
2019-03-26T21:19:47.250Z,98546.63
2019-03-26T21:22:19.994Z,98542.48
2019-03-26T21:24:52.634Z,98541.98
2019-03-26T21:27:25.231Z,98543.65
2019-03-26T21:30:10.048Z,98554.97
2019-03-26T21:32:32.105Z,98564.38
2019-03-26T21:35:05.803Z,98561.42
2019-03-26T21:37:39.919Z,98566.63
2019-03-26T21:40:12.595Z,98565.84
2019-03-26T21:42:45.692Z,98562.02
2019-03-26T21:45:21.327Z,98568.33
2019-03-26T21:47:53.883Z,98566.95
2019-03-26T21:50:26.408Z,98568.09
2019-03-26T21:52:58.975Z,98569.80
2019-03-26T21:55:31.546Z,98569.28
2019-03-26T21:58:04.127Z,98571.78
2019-03-26T22:00:36.638Z,98576.52
2019-03-26T22:03:09.094Z,98574.86
2019-03-26T22:05:44.313Z,98571.27
2019-03-26T22:08:16.990Z,98579.05
2019-03-26T22:10:49.522Z,98582.13
2019-03-26T22:13:22.249Z,98582.41
2019-03-26T22:15:54.826Z,98589.04
2019-03-26T22:18:27.300Z,98581.02
2019-03-26T22:20:59.880Z,98582.45
2019-03-26T22:23:32.353Z,98588.80
2019-03-26T22:26:04.937Z,98586.36
2019-03-26T22:28:37.380Z,98587.23
2019-03-26T22:31:09.986Z,98590.55
2019-03-26T22:33:42.708Z,98590.04
2019-03-26T22:36:15.235Z,98589.22
2019-03-26T22:38:47.753Z,98588.70
2019-03-26T22:41:20.431Z,98590.91
2019-03-26T22:43:55.063Z,98593.44
2019-03-26T22:46:26.973Z,98595.10
2019-03-26T22:48:59.506Z,98597.63
2019-03-26T22:51:31.886Z,98601.64
2019-03-26T22:54:04.440Z,98604.41
2019-03-26T22:56:37.120Z,98598.88
2019-03-26T22:59:09.604Z,98600.58
2019-03-26T23:01:42.204Z,98606.61
2019-03-26T23:04:14.962Z,98601.09
2019-03-26T23:06:47.676Z,98601.41
2019-03-26T23:09:20.361Z,98606.10
2019-03-26T23:11:53.008Z,98607.48
2019-03-26T23:14:25.619Z,98603.61
2019-03-26T23:16:58.246Z,98608.86
2019-03-26T23:19:31.033Z,98614.94
2019-03-26T23:22:03.496Z,98608.91
2019-03-26T23:24:36.054Z,98614.70
2019-03-26T23:27:08.555Z,98611.67
2019-03-26T23:29:41.005Z,98610.69
2019-03-26T23:32:13.379Z,98608.48
2019-03-26T23:34:45.863Z,98605.20
2019-03-26T23:37:18.538Z,98603.83
2019-03-26T23:39:51.408Z,98603.00
2019-03-26T23:42:23.898Z,98607.45
2019-03-26T23:44:58.495Z,98602.56
2019-03-26T23:47:30.793Z,98608.09
2019-03-26T23:50:04.725Z,98607.58
2019-03-26T23:52:37.135Z,98610.07
2019-03-26T23:55:09.639Z,98613.39
2019-03-26T23:57:42.095Z,98610.62
